Decoded Metar for LEST (SANTIAGO in SPAIN) (IATA:SCQ) | Meteo·Mobile Aviation Weather
aviador You're here:

LEST Decoded Metar

SANTIAGO in SPAIN
Report Time2018-12-16 04:00:00
UTC Time2018-12-16 04:21:37
Flight Rules lifr LIFR
Wind230° at 06 kt
W.Decomp.*RWY 17: 2.7 kt HW 5.3 kt RCW
W.Rank230° ranks 5
Current wind is below 230° avg. (7.7)
Visibility3000 m
Phenomena:Patches Fog
Clouds:Scattered 002 Hf
Broken 004 Hf
Ceiling400 ft
Temp09°C (ISA -4)
Dew Point09°C (100% RH)
AAT6.6°C
QNH1016 hPa
Density Alt830 ft
Elevation1,204 ft
Report Wrong Elevation
Raw Report
LEST 160400Z 23006KT 200V290 3000 BCFG SCT002 BKN004 09/09 Q1016
NOSIG=

Extra information for LEST:More info

Metar Taf Metar & Taf Last 4 Metars F.Rules Stats Wind Profile Meteogram Temp Stats Airport Information Weather charts Add Link Nearby VenuesMetar ALERT Operation Metar Decoded Social comments